Time;durP1;ratioP1;P1;durP2;ratioP2;P2;SDS_P1;SDS_P2;PMS_P1;PMS_P2;Temp;Humidity;BMP_temperature;BMP_pressure;BME280_temperature;BME280_humidity;BME280_pressure;Samples;Min_cycle;Max_cycle;Signal;HPM_P1;HPM_P2
2023/10/12 00:01:24;;;;;;;5.00;2.63;;;16.20;97.70;;;;;;5008653;28;20844;-62
2023/10/12 00:03:55;;;;;;;6.63;2.30;;;16.20;97.70;;;;;;5010984;28;20948;-62
2023/10/12 00:06:21;;;;;;;4.17;2.10;;;16.20;97.60;;;;;;5008463;28;20890;-62
2023/10/12 00:08:48;;;;;;;8.97;2.27;;;16.30;97.70;;;;;;5010438;28;20733;-62
2023/10/12 00:11:19;;;;;;;8.93;2.87;;;16.20;97.60;;;;;;5011090;28;20422;-62
2023/10/12 00:13:47;;;;;;;11.03;2.23;;;16.20;97.60;;;;;;5010541;28;20418;-62
2023/10/12 00:16:18;;;;;;;11.17;3.00;;;16.20;97.80;;;;;;5002746;28;20911;-62
2023/10/12 00:18:46;;;;;;;15.23;3.27;;;16.00;97.90;;;;;;5010574;28;20961;-62
2023/10/12 00:21:18;;;;;;;6.20;3.00;;;16.00;98.10;;;;;;5004121;28;20413;-62
2023/10/12 00:23:44;;;;;;;11.47;2.50;;;15.80;98.20;;;;;;5010579;28;20426;-62
2023/10/12 00:26:10;;;;;;;16.13;3.80;;;15.90;98.20;;;;;;5003122;28;20797;-62
2023/10/12 00:28:38;;;;;;;6.40;2.73;;;15.90;98.20;;;;;;5011221;28;20183;-62
2023/10/12 00:31:16;;;;;;;8.10;2.00;;;15.90;98.10;;;;;;5001889;28;20217;-62
2023/10/12 00:33:42;;;;;;;5.60;2.33;;;15.90;98.00;;;;;;5010348;28;20417;-62
2023/10/12 00:36:19;;;;;;;7.30;3.43;;;15.80;98.00;;;;;;5004516;28;20461;-62
2023/10/12 00:38:46;;;;;;;16.47;2.90;;;15.80;97.80;;;;;;5009522;28;20752;-62
2023/10/12 00:41:14;;;;;;;8.97;2.47;;;15.80;98.10;;;;;;5006872;28;20915;-62
2023/10/12 00:44:09;;;;;;;15.67;2.40;;;15.90;98.10;;;;;;5011027;28;20414;-62
2023/10/12 00:49:14;;;;;;;4.30;1.90;;;15.80;98.00;;;;;;5008966;28;20435;-62
2023/10/12 00:51:52;;;;;;;6.23;2.90;;;15.80;98.10;;;;;;5004535;28;20448;-62
2023/10/12 00:54:40;;;;;;;5.30;2.70;;;15.80;98.00;;;;;;5007557;28;20437;-62
2023/10/12 00:57:06;;;;;;;14.20;2.87;;;15.80;98.00;;;;;;5005255;28;20500;-62
2023/10/12 00:59:38;;;;;;;9.13;2.70;;;15.70;98.10;;;;;;5005934;28;20432;-62
2023/10/12 01:02:09;;;;;;;5.63;2.50;;;15.80;98.10;;;;;;5009150;28;20914;-62
2023/10/12 01:04:41;;;;;;;6.33;2.67;;;15.70;98.20;;;;;;5002710;28;20431;-62
2023/10/12 01:07:10;;;;;;;5.30;2.93;;;15.80;98.10;;;;;;5010564;28;20916;-62
2023/10/12 01:09:43;;;;;;;6.03;2.40;;;15.90;97.90;;;;;;5008767;28;20418;-62
2023/10/12 01:12:16;;;;;;;8.03;2.57;;;15.90;97.80;;;;;;5009919;28;20501;-62
2023/10/12 01:14:43;;;;;;;4.83;2.43;;;15.90;97.70;;;;;;5004577;28;20427;-62
2023/10/12 01:17:24;;;;;;;12.63;2.27;;;15.90;97.90;;;;;;5006907;28;20576;-62
2023/10/12 01:19:51;;;;;;;12.93;2.40;;;15.80;97.90;;;;;;5003515;28;21051;-62
2023/10/12 01:22:25;;;;;;;5.30;2.70;;;15.80;97.90;;;;;;5008881;28;20958;-62
2023/10/12 01:27:21;;;;;;;5.13;2.60;;;15.70;97.90;;;;;;5007764;28;20426;-62
2023/10/12 01:29:47;;;;;;;8.60;3.03;;;15.70;98.10;;;;;;5003569;28;20472;-62
2023/10/12 01:34:44;;;;;;;6.67;2.50;;;15.70;98.10;;;;;;5005013;28;20521;-62
2023/10/12 01:37:28;;;;;;;4.70;2.30;;;15.60;98.00;;;;;;5007162;28;20214;-62
2023/10/12 01:45:18;;;;;;;7.00;2.60;;;15.60;98.30;;;;;;5002158;28;20430;-62
2023/10/12 01:48:05;;;;;;;12.13;2.40;;;15.70;98.20;;;;;;5007956;28;20421;-62
2023/10/12 01:50:33;;;;;;;6.50;3.10;;;15.70;98.30;;;;;;5002567;28;20452;-62
2023/10/12 01:53:07;;;;;;;5.50;2.70;;;15.70;98.20;;;;;;5007718;28;20417;-62
2023/10/12 01:55:32;;;;;;;9.43;3.00;;;15.80;98.20;;;;;;4999808;28;20434;-62
2023/10/12 01:57:59;;;;;;;16.33;3.03;;;15.80;98.10;;;;;;5007488;28;20500;-65
2023/10/12 02:00:38;;;;;;;8.27;2.80;;;15.90;98.00;;;;;;5008292;28;20651;-62
2023/10/12 02:03:17;;;;;;;9.33;2.97;;;15.90;97.90;;;;;;5009462;28;20875;-62
2023/10/12 02:05:58;;;;;;;6.10;2.27;;;16.00;97.90;;;;;;5003497;28;20438;-62
2023/10/12 02:08:40;;;;;;;5.00;2.00;;;16.00;97.90;;;;;;5009095;28;20448;-62
2023/10/12 02:13:36;;;;;;;5.63;3.07;;;15.90;98.00;;;;;;5009964;28;20422;-62
2023/10/12 02:16:03;;;;;;;5.40;2.20;;;15.90;98.20;;;;;;5000552;28;20430;-63
2023/10/12 02:18:30;;;;;;;6.93;2.50;;;15.90;98.10;;;;;;5009113;28;20596;-62
2023/10/12 02:23:36;;;;;;;6.63;2.37;;;15.90;98.00;;;;;;5007423;28;20421;-62
2023/10/12 02:26:28;;;;;;;9.97;2.90;;;16.00;97.90;;;;;;5001548;28;20432;-62
2023/10/12 02:28:53;;;;;;;5.50;2.73;;;16.10;97.60;;;;;;5002925;28;20426;-62
2023/10/12 02:31:21;;;;;;;8.20;2.90;;;16.20;97.50;;;;;;5001927;28;20403;-62
2023/10/12 02:33:47;;;;;;;11.13;2.77;;;16.20;97.40;;;;;;5008849;28;20414;-62
2023/10/12 02:36:13;;;;;;;6.63;2.27;;;16.30;97.40;;;;;;5005139;28;20436;-62
2023/10/12 02:38:41;;;;;;;4.73;2.33;;;16.30;97.20;;;;;;5011315;28;20636;-62
2023/10/12 02:41:12;;;;;;;3.97;2.30;;;16.40;97.10;;;;;;5007705;28;20520;-62
2023/10/12 02:43:40;;;;;;;8.23;2.00;;;16.40;97.10;;;;;;5012898;28;20505;-62
2023/10/12 02:46:17;;;;;;;7.30;2.10;;;16.40;97.00;;;;;;5002920;28;20871;-62
2023/10/12 02:48:47;;;;;;;18.53;2.10;;;16.50;96.90;;;;;;5011983;28;20433;-62
2023/10/12 02:51:16;;;;;;;8.90;2.60;;;16.50;96.80;;;;;;5005000;28;20430;-62
2023/10/12 02:53:42;;;;;;;4.37;2.60;;;16.50;96.90;;;;;;5012570;28;20809;-62
2023/10/12 02:56:08;;;;;;;13.10;2.90;;;16.50;96.90;;;;;;5007221;28;20429;-62
2023/10/12 02:58:33;;;;;;;5.93;2.20;;;16.50;96.80;;;;;;5012808;28;20213;-62
2023/10/12 03:01:12;;;;;;;4.83;2.17;;;16.70;96.60;;;;;;5008191;28;20214;-62
2023/10/12 03:03:39;;;;;;;4.27;2.40;;;16.60;96.60;;;;;;5005636;28;20175;-62
2023/10/12 03:06:08;;;;;;;6.30;2.30;;;16.70;96.40;;;;;;5009224;28;20450;-62
2023/10/12 03:08:53;;;;;;;5.03;2.60;;;16.80;96.40;;;;;;5004856;28;20422;-62
2023/10/12 03:11:20;;;;;;;11.77;2.83;;;16.80;96.40;;;;;;5010189;28;20422;-62
2023/10/12 03:14:12;;;;;;;3.40;2.03;;;16.90;96.10;;;;;;5012088;28;20517;-62
2023/10/12 03:16:41;;;;;;;4.90;1.97;;;17.00;96.10;;;;;;5007599;28;20418;-62
2023/10/12 03:21:49;;;;;;;9.90;2.50;;;17.20;95.70;;;;;;5006811;28;20424;-62
2023/10/12 03:24:15;;;;;;;7.60;1.90;;;17.30;95.40;;;;;;5010779;28;20418;-62
2023/10/12 03:26:47;;;;;;;7.40;2.63;;;17.30;95.40;;;;;;5005476;28;20516;-62
2023/10/12 03:34:16;;;;;;;9.93;2.80;;;17.30;95.20;;;;;;5010437;28;20229;-62
2023/10/12 03:36:47;;;;;;;6.13;2.63;;;17.30;95.10;;;;;;5009122;28;20434;-62
2023/10/12 03:39:25;;;;;;;;;;;;;;;;;;;;;
2023/10/12 03:50:09;;;;;;;7.93;2.50;;;17.20;95.20;;;;;;4998085;28;20427;-62
2023/10/12 03:52:42;;;;;;;9.20;2.40;;;17.20;95.30;;;;;;5008259;28;20402;-62
2023/10/12 03:57:45;;;;;;;5.63;2.70;;;17.10;95.50;;;;;;5008494;28;20468;-62
2023/10/12 04:18:33;;;;;;;7.47;2.77;;;16.80;95.80;;;;;;5003025;28;20445;-62
2023/10/12 04:20:59;;;;;;;6.93;2.93;;;16.80;95.90;;;;;;5002523;28;20938;-62
2023/10/12 04:23:45;;;;;;;10.63;3.20;;;16.70;95.90;;;;;;5011343;28;20470;-62
2023/10/12 04:28:40;;;;;;;6.17;2.23;;;16.70;96.00;;;;;;5011364;28;20422;-62
2023/10/12 04:39:25;;;;;;;8.20;3.20;;;16.40;96.50;;;;;;5007522;28;21104;-62
2023/10/12 04:46:51;;;;;;;10.13;2.90;;;16.30;96.50;;;;;;5001932;28;20462;-62
2023/10/12 04:51:49;;;;;;;9.20;2.80;;;16.20;96.70;;;;;;5002758;28;20426;-62
2023/10/12 04:54:23;;;;;;;6.53;3.00;;;16.30;96.90;;;;;;5006382;28;20203;-62
2023/10/12 05:02:41;;;;;;;4.97;2.90;;;16.20;97.20;;;;;;5008495;28;20406;-62
2023/10/12 05:07:54;;;;;;;10.80;2.90;;;16.30;97.30;;;;;;5008437;28;20422;-62
2023/10/12 05:10:46;;;;;;;7.83;2.67;;;16.30;97.40;;;;;;5009384;28;20422;-62
2023/10/12 05:13:10;;;;;;;9.23;2.90;;;16.40;97.40;;;;;;5000767;28;20437;-62
2023/10/12 05:15:41;;;;;;;11.87;2.37;;;16.60;97.20;;;;;;5002085;28;20426;-62
2023/10/12 05:18:07;;;;;;;7.77;2.40;;;16.60;97.10;;;;;;5001980;28;20585;-62
2023/10/12 05:20:33;;;;;;;6.93;2.83;;;16.70;97.50;;;;;;4996812;28;20427;-62
2023/10/12 05:22:59;;;;;;;12.40;2.23;;;16.70;97.00;;;;;;5010438;28;20419;-62
2023/10/12 05:25:33;;;;;;;9.87;2.97;;;16.70;97.00;;;;;;5001900;28;20488;-62
2023/10/12 05:28:14;;;;;;;6.13;3.03;;;16.70;96.90;;;;;;5007397;28;20179;-65
2023/10/12 05:30:54;;;;;;;2.73;1.60;;;16.80;96.90;;;;;;4997779;28;20501;-62
2023/10/12 05:33:37;;;;;;;8.80;2.33;;;16.80;96.90;;;;;;5007626;28;20410;-62
2023/10/12 05:36:10;;;;;;;11.50;2.93;;;16.80;96.70;;;;;;4999512;28;20434;-62
2023/10/12 05:38:39;;;;;;;12.00;3.17;;;16.90;96.80;;;;;;5003847;28;20866;-62
2023/10/12 05:41:09;;;;;;;3.93;2.00;;;16.90;96.70;;;;;;5003152;28;20895;-63
2023/10/12 05:43:36;;;;;;;8.53;3.03;;;16.90;96.50;;;;;;5006164;28;20522;-63
2023/10/12 05:46:29;;;;;;;10.87;2.23;;;16.90;96.50;;;;;;5002928;28;20509;-63
2023/10/12 05:48:51;;;;;;;5.23;2.67;;;17.00;96.30;;;;;;5007924;28;20422;-63
2023/10/12 05:51:19;;;;;;;4.57;2.70;;;17.00;96.30;;;;;;5005545;28;20469;-63
2023/10/12 05:54:02;;;;;;;12.83;3.37;;;16.90;96.30;;;;;;5009385;28;20505;-63
2023/10/12 05:56:30;;;;;;;13.03;3.30;;;16.90;96.30;;;;;;5005908;28;20448;-64
2023/10/12 05:58:55;;;;;;;3.93;1.83;;;17.00;96.10;;;;;;5008236;28;20565;-63
2023/10/12 06:01:35;;;;;;;4.83;1.90;;;17.10;96.10;;;;;;5006102;28;20432;-63
2023/10/12 06:04:08;;;;;;;4.27;2.40;;;17.00;96.00;;;;;;5008450;28;20183;-63
2023/10/12 06:06:41;;;;;;;6.10;2.60;;;17.20;95.90;;;;;;5007825;28;20446;-63
2023/10/12 06:09:20;;;;;;;6.53;2.70;;;17.20;95.80;;;;;;5009130;28;20824;-63
2023/10/12 06:11:47;;;;;;;5.40;2.00;;;17.30;95.70;;;;;;5005331;28;20406;-63
2023/10/12 06:14:14;;;;;;;7.63;3.33;;;17.40;95.50;;;;;;5011346;28;20438;-63
2023/10/12 06:16:46;;;;;;;6.40;2.57;;;17.40;95.40;;;;;;5009831;28;20793;-63
2023/10/12 06:21:52;;;;;;;6.60;2.13;;;17.60;95.00;;;;;;5006109;28;21674;-63
2023/10/12 06:24:30;;;;;;;8.63;2.67;;;17.70;95.00;;;;;;5010554;28;20436;-63
2023/10/12 06:26:56;;;;;;;7.80;2.90;;;17.60;94.90;;;;;;5008610;28;20422;-63
2023/10/12 06:29:26;;;;;;;9.23;2.90;;;17.70;95.20;;;;;;5009952;28;20492;-63
2023/10/12 06:31:53;;;;;;;4.70;2.60;;;17.70;94.90;;;;;;5007760;28;20272;-63
2023/10/12 06:34:19;;;;;;;7.70;2.90;;;17.80;94.90;;;;;;5009765;28;20434;-63
2023/10/12 06:36:45;;;;;;;8.33;2.23;;;17.80;94.90;;;;;;5002161;28;20433;-63
2023/10/12 06:46:53;;;;;;;8.47;2.03;;;17.90;94.70;;;;;;5005904;28;20657;-63
2023/10/12 06:49:24;;;;;;;14.17;3.17;;;17.90;94.60;;;;;;5009298;28;20514;-63
2023/10/12 06:52:03;;;;;;;9.37;2.23;;;17.90;94.70;;;;;;5005607;28;20467;-63
2023/10/12 06:54:39;;;;;;;7.10;2.53;;;17.90;94.50;;;;;;5007822;28;20426;-63
2023/10/12 06:57:53;;;;;;;9.67;3.07;;;18.00;94.60;;;;;;5007911;28;20421;-63
2023/10/12 07:02:24;;;;;;;12.20;2.97;;;17.90;94.70;;;;;;5010620;28;20931;-63
2023/10/12 07:04:56;;;;;;;10.87;2.83;;;18.00;94.50;;;;;;5008601;28;20529;-62
2023/10/12 07:07:41;;;;;;;6.57;2.23;;;17.90;94.70;;;;;;5009687;28;20456;-63
2023/10/12 07:12:49;;;;;;;9.27;3.87;;;18.00;94.60;;;;;;5012493;28;20418;-62
2023/10/12 07:15:23;;;;;;;4.70;2.50;;;18.00;94.60;;;;;;5010611;28;20417;-63
2023/10/12 07:17:49;;;;;;;10.30;3.40;;;18.00;94.40;;;;;;5011926;28;20464;-62
2023/10/12 07:20:25;;;;;;;10.83;3.00;;;18.10;94.30;;;;;;5003095;28;20462;-63
2023/10/12 07:22:51;;;;;;;7.53;2.70;;;18.10;94.20;;;;;;5012326;28;20464;-62
2023/10/12 07:25:22;;;;;;;8.13;3.20;;;18.10;94.40;;;;;;5006936;28;20427;-62
2023/10/12 07:27:59;;;;;;;14.07;2.87;;;18.20;93.90;;;;;;5012599;28;20179;-62
2023/10/12 07:30:36;;;;;;;8.43;2.40;;;18.20;93.40;;;;;;5003141;28;20438;-63
2023/10/12 07:33:07;;;;;;;7.30;2.70;;;18.20;93.60;;;;;;5011818;28;20426;-62
2023/10/12 07:35:34;;;;;;;10.03;2.73;;;18.40;93.00;;;;;;5005130;28;20426;-62
2023/10/12 07:38:14;;;;;;;8.47;3.67;;;18.40;93.30;;;;;;5011891;28;20465;-62
2023/10/12 07:40:51;;;;;;;5.27;2.70;;;18.50;93.10;;;;;;5007529;28;20421;-62
2023/10/12 07:43:20;;;;;;;6.63;2.63;;;18.50;93.10;;;;;;5010099;28;20413;-62
2023/10/12 07:45:49;;;;;;;6.73;2.50;;;18.50;92.70;;;;;;5000941;28;20434;-63
2023/10/12 07:48:31;;;;;;;7.70;4.03;;;18.50;92.90;;;;;;5011146;28;20422;-63
2023/10/12 07:51:15;;;;;;;7.90;2.43;;;18.50;93.00;;;;;;5005013;28;20444;-62
2023/10/12 07:53:42;;;;;;;7.53;2.97;;;18.40;93.00;;;;;;5009850;28;20433;-62
2023/10/12 07:56:15;;;;;;;4.47;2.30;;;18.40;92.80;;;;;;5006429;28;20544;-62
2023/10/12 07:58:47;;;;;;;6.90;2.90;;;18.40;93.30;;;;;;5009108;28;20468;-63
2023/10/12 08:03:58;;;;;;;5.90;2.70;;;18.30;93.30;;;;;;5009431;28;20422;-62
2023/10/12 08:09:04;;;;;;;6.30;2.47;;;18.40;93.10;;;;;;5009177;28;20422;-63
2023/10/12 08:11:31;;;;;;;7.33;2.50;;;18.40;93.40;;;;;;5008620;28;20415;-63
2023/10/12 08:14:18;;;;;;;6.07;2.20;;;18.30;93.40;;;;;;5008915;28;20871;-63
2023/10/12 08:17:00;;;;;;;14.67;3.20;;;18.30;93.30;;;;;;5007020;28;20460;-63
2023/10/12 08:19:28;;;;;;;9.13;1.93;;;18.20;93.40;;;;;;5006529;28;20947;-63
2023/10/12 08:21:58;;;;;;;4.93;2.63;;;18.20;93.60;;;;;;5005013;28;20427;-63
2023/10/12 08:24:24;;;;;;;9.17;2.83;;;18.20;93.40;;;;;;5008306;28;20499;-63
2023/10/12 08:26:57;;;;;;;8.40;2.73;;;18.20;93.50;;;;;;5004814;28;21066;-63
2023/10/12 08:44:59;;;;;;;9.60;3.07;;;18.10;93.40;;;;;;5002923;28;20771;-62
2023/10/12 08:52:28;;;;;;;6.60;3.37;;;18.20;93.90;;;;;;5007171;28;20426;-62
2023/10/12 08:55:03;;;;;;;9.13;3.00;;;18.20;93.90;;;;;;5004226;28;20931;-63
2023/10/12 08:57:55;;;;;;;6.70;3.17;;;18.20;94.20;;;;;;5006368;28;20575;-63
2023/10/12 09:03:01;;;;;;;7.07;3.43;;;18.10;94.30;;;;;;5005244;28;20479;-63
2023/10/12 09:05:29;;;;;;;5.07;2.10;;;18.20;94.20;;;;;;5005514;28;20430;-63
2023/10/12 09:08:07;;;;;;;10.33;3.17;;;18.10;94.30;;;;;;5006649;28;20426;-63
2023/10/12 09:13:23;;;;;;;10.23;3.23;;;18.20;94.40;;;;;;5007450;28;20422;-63
2023/10/12 09:15:56;;;;;;;18.20;2.77;;;18.20;94.40;;;;;;5003113;28;20771;-63
2023/10/12 09:18:30;;;;;;;4.93;2.33;;;18.10;94.70;;;;;;5008257;28;20809;-63
2023/10/12 09:23:29;;;;;;;7.43;2.33;;;18.10;95.00;;;;;;5009159;28;20458;-63
2023/10/12 09:36:44;;;;;;;7.60;2.00;;;18.40;94.60;;;;;;5001951;28;20405;-63
2023/10/12 09:39:15;;;;;;;15.80;2.57;;;18.40;94.50;;;;;;5008315;28;20466;-63
2023/10/12 09:41:54;;;;;;;8.30;3.30;;;18.50;94.50;;;;;;5001898;28;20964;-63
2023/10/12 09:44:26;;;;;;;8.77;2.77;;;18.50;94.70;;;;;;5006533;28;20445;-63
2023/10/12 09:46:55;;;;;;;9.70;3.23;;;18.60;94.10;;;;;;5003497;28;20410;-63
2023/10/12 09:49:24;;;;;;;3.37;2.33;;;18.60;94.40;;;;;;5009670;28;20509;-63
2023/10/12 09:51:54;;;;;;;12.13;3.23;;;18.70;94.70;;;;;;5005951;28;20793;-63
2023/10/12 09:54:45;;;;;;;5.60;2.40;;;18.70;94.30;;;;;;5009781;28;20429;-63
2023/10/12 09:57:50;;;;;;;6.93;2.90;;;18.70;94.50;;;;;;5006163;28;20416;-65
2023/10/12 10:02:55;;;;;;;5.80;2.70;;;18.60;94.80;;;;;;5017786;28;20417;-65
2023/10/12 10:05:39;;;;;;;7.03;3.00;;;18.80;94.30;;;;;;5009122;28;20421;-65
2023/10/12 10:08:06;;;;;;;6.47;3.47;;;18.80;94.60;;;;;;5010425;28;20448;-64
2023/10/12 10:10:36;;;;;;;10.83;3.00;;;18.90;94.40;;;;;;5011249;28;20417;-65
2023/10/12 10:13:08;;;;;;;5.83;2.20;;;;;;;;;;5011629;28;20467;-63
2023/10/12 10:15:55;;;;;;;9.57;2.60;;;18.90;94.30;;;;;;5006831;28;20452;-62
2023/10/12 10:18:28;;;;;;;21.23;4.10;;;18.90;94.60;;;;;;5011935;28;20757;-63
2023/10/12 10:21:01;;;;;;;7.63;3.20;;;19.10;94.60;;;;;;5002946;28;20440;-63
2023/10/12 10:23:35;;;;;;;7.13;2.37;;;19.00;94.80;;;;;;5012597;28;20413;-63
2023/10/12 10:26:20;;;;;;;7.20;3.00;;;19.10;94.90;;;;;;5007348;28;20467;-63
2023/10/12 10:28:58;;;;;;;3.93;2.47;;;19.10;95.00;;;;;;5007342;28;20743;-63
2023/10/12 10:31:25;;;;;;;5.10;2.53;;;19.20;94.80;;;;;;5004202;28;20545;-63
2023/10/12 10:33:57;;;;;;;6.83;2.80;;;19.20;94.80;;;;;;5012492;28;20421;-63
2023/10/12 10:36:26;;;;;;;5.83;2.80;;;19.30;94.90;;;;;;5005673;28;21077;-63
2023/10/12 10:41:38;;;;;;;11.73;4.00;;;19.40;94.60;;;;;;5002900;28;20481;-63
2023/10/12 10:44:08;;;;;;;5.87;3.20;;;19.50;94.60;;;;;;5011600;28;20813;-63
2023/10/12 10:46:39;;;;;;;5.07;2.30;;;;;;;;;;5002787;28;20456;-63
2023/10/12 10:49:06;;;;;;;5.47;2.10;;;19.50;94.30;;;;;;5010753;28;20892;-63
2023/10/12 10:51:32;;;;;;;6.73;3.00;;;19.50;94.50;;;;;;5004146;28;20545;-63
2023/10/12 10:53:58;;;;;;;8.03;2.50;;;19.50;94.80;;;;;;5011457;28;21091;-63
2023/10/12 10:59:07;;;;;;;11.00;2.97;;;19.60;95.20;;;;;;5010489;28;20207;-63
2023/10/12 11:01:32;;;;;;;6.43;3.40;;;19.70;95.20;;;;;;5009747;28;20410;-65
2023/10/12 11:04:00;;;;;;;7.90;3.03;;;19.80;94.80;;;;;;5010931;28;20424;-65
2023/10/12 11:06:30;;;;;;;8.43;3.47;;;19.80;95.00;;;;;;5010378;28;20584;-65
2023/10/12 11:09:06;;;;;;;6.53;3.13;;;20.00;94.90;;;;;;5011999;28;20914;-65
2023/10/12 11:11:38;;;;;;;11.67;3.50;;;20.00;95.20;;;;;;5007555;28;20414;-65
2023/10/12 11:14:06;;;;;;;8.50;2.90;;;20.00;95.30;;;;;;5010826;28;20427;-65
2023/10/12 11:16:33;;;;;;;10.77;3.33;;;20.20;95.10;;;;;;5003673;28;20549;-63
2023/10/12 11:18:59;;;;;;;13.80;3.27;;;20.20;94.60;;;;;;5010275;28;20477;-63
2023/10/12 11:21:26;;;;;;;12.03;2.90;;;20.10;95.10;;;;;;5004811;28;20414;-62
2023/10/12 11:23:59;;;;;;;6.70;2.73;;;20.10;95.00;;;;;;5011515;28;20520;-63
2023/10/12 11:26:25;;;;;;;7.30;3.33;;;20.20;94.90;;;;;;5002566;28;20914;-63
2023/10/12 11:29:04;;;;;;;15.53;3.73;;;20.20;95.00;;;;;;5011454;28;20481;-63
2023/10/12 11:31:30;;;;;;;13.13;3.97;;;20.20;95.00;;;;;;5003765;28;20791;-63
2023/10/12 11:33:58;;;;;;;21.37;3.40;;;20.20;95.10;;;;;;5010636;28;20457;-63
2023/10/12 11:36:24;;;;;;;17.83;3.63;;;20.20;95.30;;;;;;5002700;28;20414;-63
2023/10/12 11:39:00;;;;;;;5.40;2.23;;;20.40;95.00;;;;;;5011025;28;21131;-63
2023/10/12 11:41:27;;;;;;;8.47;3.07;;;20.40;95.00;;;;;;5000032;28;20548;-63
2023/10/12 11:43:53;;;;;;;7.23;3.03;;;20.50;95.30;;;;;;5010893;28;20438;-63
2023/10/12 11:46:19;;;;;;;8.03;3.30;;;20.70;95.30;;;;;;5004662;28;20410;-63
2023/10/12 11:49:00;;;;;;;9.50;3.37;;;20.90;94.70;;;;;;5010985;28;20410;-63
2023/10/12 11:51:26;;;;;;;6.27;2.97;;;21.00;94.90;;;;;;5006150;28;20487;-63
2023/10/12 11:53:53;;;;;;;9.30;3.13;;;21.20;94.60;;;;;;5010727;28;20422;-63
2023/10/12 11:56:22;;;;;;;7.00;2.80;;;21.20;94.90;;;;;;5007371;28;20202;-63
2023/10/12 11:58:55;;;;;;;14.30;3.10;;;21.50;94.50;;;;;;5010901;28;20561;-63
2023/10/12 12:01:22;;;;;;;8.57;3.20;;;21.70;94.60;;;;;;5011499;28;20405;-63
2023/10/12 12:03:53;;;;;;;3.83;2.40;;;21.80;93.70;;;;;;5010879;28;20906;-63
2023/10/12 12:06:20;;;;;;;4.70;2.47;;;21.80;93.50;;;;;;5007822;28;20411;-63
2023/10/12 12:08:46;;;;;;;6.40;3.37;;;21.90;92.00;;;;;;5010823;28;20417;-63
2023/10/12 12:11:15;;;;;;;5.53;2.30;;;22.10;91.70;;;;;;5006184;28;20425;-63
2023/10/12 12:13:47;;;;;;;5.73;2.57;;;22.10;90.90;;;;;;5012129;28;20742;-63
2023/10/12 12:16:19;;;;;;;8.07;3.33;;;22.10;90.50;;;;;;5002579;28;20437;-63
2023/10/12 12:18:48;;;;;;;4.53;2.23;;;22.00;91.20;;;;;;5010363;28;20491;-63
2023/10/12 12:21:17;;;;;;;7.10;2.80;;;22.00;90.60;;;;;;5003672;28;20751;-63
2023/10/12 12:23:48;;;;;;;6.70;2.30;;;22.00;90.60;;;;;;5011278;28;20838;-63
2023/10/12 12:26:17;;;;;;;4.47;1.90;;;21.80;90.50;;;;;;5000550;28;20420;-63
2023/10/12 12:28:44;;;;;;;9.53;2.70;;;21.80;90.10;;;;;;5007572;28;20429;-63
2023/10/12 12:31:16;;;;;;;13.37;2.17;;;21.70;90.00;;;;;;5008527;28;20559;-63
2023/10/12 12:33:45;;;;;;;7.00;2.17;;;21.70;88.90;;;;;;5005934;28;20414;-63
2023/10/12 12:36:21;;;;;;;7.87;2.67;;;21.70;88.80;;;;;;5000158;28;20422;-63
2023/10/12 12:38:57;;;;;;;9.20;3.40;;;21.60;90.10;;;;;;5009588;28;20461;-63
2023/10/12 12:41:24;;;;;;;5.73;2.53;;;21.60;88.50;;;;;;5003736;28;20422;-63
2023/10/12 12:43:51;;;;;;;7.10;2.67;;;21.60;88.70;;;;;;5008877;28;20457;-63
2023/10/12 12:46:18;;;;;;;5.20;2.50;;;21.60;88.10;;;;;;5002233;28;20422;-63
2023/10/12 12:48:48;;;;;;;6.47;2.77;;;21.50;88.50;;;;;;5009532;28;20425;-63
2023/10/12 12:51:15;;;;;;;6.47;2.30;;;21.60;88.40;;;;;;5002367;28;21225;-64
2023/10/12 12:53:46;;;;;;;2.73;1.40;;;21.50;88.80;;;;;;5010724;28;20428;-63
2023/10/12 12:56:16;;;;;;;7.97;2.43;;;21.60;88.80;;;;;;5001444;28;20515;-63
2023/10/12 12:58:48;;;;;;;4.73;2.43;;;21.60;89.30;;;;;;5010706;28;20470;-63
2023/10/12 13:01:23;;;;;;;3.20;1.90;;;21.60;88.00;;;;;;5006802;28;20399;-63
2023/10/12 13:03:55;;;;;;;4.10;1.50;;;21.60;88.40;;;;;;5009428;28;20429;-63
2023/10/12 13:06:20;;;;;;;4.13;2.20;;;21.60;89.00;;;;;;5008833;28;20425;-63
2023/10/12 13:08:46;;;;;;;7.97;2.50;;;21.50;90.00;;;;;;5008610;28;20797;-64
2023/10/12 13:11:20;;;;;;;25.77;3.13;;;21.30;90.10;;;;;;5007817;28;21076;-64
2023/10/12 13:13:47;;;;;;;4.57;2.60;;;21.40;90.10;;;;;;5007910;28;20213;-64
2023/10/12 13:16:13;;;;;;;8.43;2.10;;;21.40;90.00;;;;;;5001166;28;20429;-64
2023/10/12 13:18:40;;;;;;;3.40;2.17;;;21.30;90.00;;;;;;5007883;28;20483;-63
2023/10/12 13:21:14;;;;;;;6.30;2.40;;;21.30;89.80;;;;;;4999078;28;20505;-63
2023/10/12 13:23:40;;;;;;;3.57;1.87;;;21.40;89.00;;;;;;5001663;28;20753;-63
2023/10/12 13:26:07;;;;;;;8.53;2.73;;;21.40;89.00;;;;;;5003853;28;20895;-63
2023/10/12 13:28:33;;;;;;;3.47;1.73;;;21.40;89.50;;;;;;5009419;28;20545;-63
2023/10/12 13:30:58;;;;;;;9.20;2.30;;;21.60;90.00;;;;;;5003969;28;20429;-63
2023/10/12 13:33:27;;;;;;;22.27;2.90;;;21.70;89.40;;;;;;5009938;28;20257;-63
2023/10/12 13:35:56;;;;;;;4.73;2.20;;;21.60;90.10;;;;;;4999940;28;20193;-63
2023/10/12 13:38:22;;;;;;;4.30;2.20;;;21.70;90.10;;;;;;5008289;28;20482;-63
2023/10/12 13:40:48;;;;;;;11.13;2.50;;;21.70;89.50;;;;;;5006387;28;20479;-63
2023/10/12 13:43:14;;;;;;;7.13;2.70;;;21.80;89.00;;;;;;5010514;28;20573;-63
2023/10/12 13:45:49;;;;;;;5.53;2.40;;;21.80;89.10;;;;;;5006411;28;20860;-63
2023/10/12 13:48:17;;;;;;;4.90;2.17;;;21.80;89.10;;;;;;5006394;28;20773;-63
2023/10/12 13:50:46;;;;;;;9.50;2.87;;;21.80;89.30;;;;;;5003765;28;20793;-63
2023/10/12 13:53:15;;;;;;;5.30;2.63;;;21.80;89.30;;;;;;5006920;28;20782;-63
2023/10/12 13:55:42;;;;;;;5.03;2.67;;;21.90;89.10;;;;;;5005615;28;20441;-63
2023/10/12 13:58:10;;;;;;;6.80;3.07;;;21.90;89.00;;;;;;5006448;28;20461;-63
2023/10/12 14:00:37;;;;;;;4.83;2.27;;;21.90;89.30;;;;;;5008613;28;20513;-63
2023/10/12 14:03:10;;;;;;;3.57;2.10;;;21.70;89.90;;;;;;5009490;28;20410;-63
2023/10/12 14:05:43;;;;;;;10.60;2.57;;;21.90;89.40;;;;;;5005389;28;20940;-63
2023/10/12 14:08:09;;;;;;;4.90;2.13;;;21.90;88.80;;;;;;5019979;28;20429;-63
2023/10/12 14:10:42;;;;;;;3.97;1.97;;;21.90;88.50;;;;;;5001403;28;20554;-63
2023/10/12 14:13:08;;;;;;;2.80;1.50;;;21.90;88.70;;;;;;5009814;28;20433;-63
2023/10/12 14:15:38;;;;;;;5.10;2.53;;;21.90;89.70;;;;;;5000678;28;20513;-63
2023/10/12 14:18:10;;;;;;;9.43;2.50;;;22.00;89.20;;;;;;5006071;28;20497;-63
2023/10/12 14:20:37;;;;;;;8.77;3.00;;;21.90;90.00;;;;;;5001677;28;20418;-63
2023/10/12 14:23:12;;;;;;;7.30;2.73;;;21.90;89.30;;;;;;5008107;28;20426;-63
2023/10/12 14:25:50;;;;;;;4.97;2.60;;;22.00;89.00;;;;;;5000943;28;20432;-63
2023/10/12 14:28:17;;;;;;;5.50;2.40;;;22.00;89.00;;;;;;5006993;28;20420;-63
2023/10/12 14:30:47;;;;;;;5.20;2.20;;;21.80;89.90;;;;;;5004126;28;20429;-63
2023/10/12 14:33:15;;;;;;;4.70;2.23;;;21.90;89.20;;;;;;5005923;28;20924;-63
2023/10/12 14:35:42;;;;;;;5.70;2.80;;;21.80;89.00;;;;;;5008484;28;20799;-63
2023/10/12 14:38:13;;;;;;;13.80;2.80;;;21.90;87.90;;;;;;5009884;28;20501;-63
2023/10/12 14:40:40;;;;;;;9.80;2.93;;;22.00;87.90;;;;;;5007700;28;20918;-63
2023/10/12 14:43:10;;;;;;;4.37;2.03;;;21.90;87.90;;;;;;5010826;28;20926;-63
2023/10/12 14:45:43;;;;;;;8.70;2.03;;;21.90;87.20;;;;;;5009116;28;20418;-63
2023/10/12 14:48:10;;;;;;;3.77;2.27;;;21.80;87.40;;;;;;5011199;28;20912;-63
2023/10/12 14:50:38;;;;;;;5.83;2.23;;;21.80;88.20;;;;;;5007541;28;20909;-63
2023/10/12 14:53:09;;;;;;;7.63;2.43;;;21.80;88.20;;;;;;5012752;28;20433;-63
2023/10/12 14:55:35;;;;;;;9.70;2.70;;;21.70;87.20;;;;;;5003007;28;20425;-63
2023/10/12 14:58:02;;;;;;;18.17;2.57;;;21.80;87.80;;;;;;5013142;28;20464;-63
2023/10/12 15:00:29;;;;;;;8.63;2.40;;;21.90;87.50;;;;;;5008354;28;20429;-63
2023/10/12 15:02:57;;;;;;;6.23;2.87;;;21.80;88.20;;;;;;5010659;28;20437;-63
2023/10/12 15:05:31;;;;;;;9.43;2.43;;;22.10;87.70;;;;;;5002080;28;20490;-63
2023/10/12 15:07:57;;;;;;;9.80;2.23;;;22.10;87.40;;;;;;5009187;28;20441;-63
2023/10/12 15:10:25;;;;;;;4.70;2.10;;;22.20;87.20;;;;;;5006315;28;20638;-63
2023/10/12 15:12:51;;;;;;;3.60;2.13;;;22.20;87.10;;;;;;5011632;28;20410;-63
2023/10/12 15:15:27;;;;;;;9.40;2.00;;;22.30;86.50;;;;;;5005402;28;20892;-63
2023/10/12 15:17:52;;;;;;;12.70;2.43;;;22.40;86.50;;;;;;5010799;28;21043;-63
2023/10/12 15:20:18;;;;;;;18.20;2.70;;;22.40;85.10;;;;;;5005997;28;20901;-63
2023/10/12 15:22:45;;;;;;;8.67;2.10;;;22.40;86.10;;;;;;5007951;28;20874;-63
2023/10/12 15:25:17;;;;;;;4.13;2.00;;;22.50;85.60;;;;;;5007009;28;20577;-63
2023/10/12 15:27:44;;;;;;;7.80;3.20;;;22.50;84.30;;;;;;5006790;28;20852;-63
2023/10/12 15:30:10;;;;;;;8.97;2.10;;;22.40;85.00;;;;;;5008150;28;20425;-63
2023/10/12 15:32:40;;;;;;;30.07;2.37;;;22.40;84.70;;;;;;5007176;28;20402;-63
2023/10/12 15:35:10;;;;;;;8.60;2.57;;;22.30;84.50;;;;;;5002432;28;20418;-63